sensor_id;sensor_type;location;lat;lon;timestamp;P1;durP1;ratioP1;P2;durP2;ratioP2
27746;SDS011;15138;51.012;4.692;2023-04-03T00:01:14;7.75;;;4.22;;
27746;SDS011;15138;51.012;4.692;2023-04-03T00:03:43;8.73;;;4.35;;
27746;SDS011;15138;51.012;4.692;2023-04-03T00:06:12;8.10;;;4.63;;
27746;SDS011;15138;51.012;4.692;2023-04-03T00:08:42;7.00;;;4.60;;
27746;SDS011;15138;51.012;4.692;2023-04-03T00:11:10;7.07;;;3.95;;
27746;SDS011;15138;51.012;4.692;2023-04-03T00:13:38;8.40;;;4.18;;
27746;SDS011;15138;51.012;4.692;2023-04-03T00:16:07;8.43;;;4.65;;
27746;SDS011;15138;51.012;4.692;2023-04-03T00:18:37;8.65;;;4.20;;
27746;SDS011;15138;51.012;4.692;2023-04-03T00:21:07;7.78;;;4.00;;
27746;SDS011;15138;51.012;4.692;2023-04-03T00:23:35;5.82;;;3.78;;
27746;SDS011;15138;51.012;4.692;2023-04-03T00:26:05;5.18;;;3.95;;
27746;SDS011;15138;51.012;4.692;2023-04-03T00:28:33;8.30;;;4.50;;
27746;SDS011;15138;51.012;4.692;2023-04-03T00:31:01;6.65;;;4.43;;
27746;SDS011;15138;51.012;4.692;2023-04-03T00:33:30;11.10;;;4.68;;
27746;SDS011;15138;51.012;4.692;2023-04-03T00:35:58;6.57;;;4.40;;
27746;SDS011;15138;51.012;4.692;2023-04-03T00:38:26;7.68;;;3.85;;
27746;SDS011;15138;51.012;4.692;2023-04-03T00:40:54;4.63;;;3.40;;
27746;SDS011;15138;51.012;4.692;2023-04-03T00:43:24;5.80;;;3.70;;
27746;SDS011;15138;51.012;4.692;2023-04-03T00:45:54;7.30;;;4.45;;
27746;SDS011;15138;51.012;4.692;2023-04-03T00:48:24;6.25;;;3.90;;
27746;SDS011;15138;51.012;4.692;2023-04-03T00:50:56;7.35;;;4.10;;
27746;SDS011;15138;51.012;4.692;2023-04-03T00:53:26;7.25;;;3.42;;
27746;SDS011;15138;51.012;4.692;2023-04-03T00:55:58;8.82;;;3.92;;
27746;SDS011;15138;51.012;4.692;2023-04-03T00:58:31;4.40;;;3.10;;
27746;SDS011;15138;51.012;4.692;2023-04-03T01:01:04;4.95;;;3.20;;
27746;SDS011;15138;51.012;4.692;2023-04-03T01:03:35;5.32;;;3.10;;
27746;SDS011;15138;51.012;4.692;2023-04-03T01:06:04;13.43;;;4.18;;
27746;SDS011;15138;51.012;4.692;2023-04-03T01:08:33;9.15;;;4.90;;
27746;SDS011;15138;51.012;4.692;2023-04-03T01:11:02;4.38;;;3.10;;
27746;SDS011;15138;51.012;4.692;2023-04-03T01:13:32;9.38;;;4.05;;
27746;SDS011;15138;51.012;4.692;2023-04-03T01:16:01;6.75;;;3.10;;
27746;SDS011;15138;51.012;4.692;2023-04-03T01:18:31;7.65;;;3.80;;
27746;SDS011;15138;51.012;4.692;2023-04-03T01:21:14;5.63;;;3.30;;
27746;SDS011;15138;51.012;4.692;2023-04-03T01:24:22;5.82;;;3.53;;
27746;SDS011;15138;51.012;4.692;2023-04-03T01:26:58;5.93;;;3.33;;
27746;SDS011;15138;51.012;4.692;2023-04-03T01:29:28;5.15;;;3.38;;
27746;SDS011;15138;51.012;4.692;2023-04-03T01:31:58;5.63;;;3.35;;
27746;SDS011;15138;51.012;4.692;2023-04-03T01:34:28;7.43;;;3.88;;
27746;SDS011;15138;51.012;4.692;2023-04-03T01:36:57;6.40;;;3.40;;
27746;SDS011;15138;51.012;4.692;2023-04-03T01:39:26;6.78;;;3.88;;
27746;SDS011;15138;51.012;4.692;2023-04-03T01:41:54;6.28;;;3.53;;
27746;SDS011;15138;51.012;4.692;2023-04-03T01:44:22;7.07;;;3.80;;
27746;SDS011;15138;51.012;4.692;2023-04-03T01:46:50;7.45;;;4.07;;
27746;SDS011;15138;51.012;4.692;2023-04-03T01:49:20;5.18;;;3.50;;
27746;SDS011;15138;51.012;4.692;2023-04-03T01:51:48;5.35;;;2.72;;
27746;SDS011;15138;51.012;4.692;2023-04-03T01:54:16;4.70;;;3.30;;
27746;SDS011;15138;51.012;4.692;2023-04-03T01:56:44;7.28;;;3.50;;
27746;SDS011;15138;51.012;4.692;2023-04-03T01:59:12;5.00;;;3.25;;
27746;SDS011;15138;51.012;4.692;2023-04-03T02:01:43;6.68;;;3.20;;
27746;SDS011;15138;51.012;4.692;2023-04-03T02:04:12;6.55;;;3.70;;
27746;SDS011;15138;51.012;4.692;2023-04-03T02:06:42;4.60;;;3.03;;
27746;SDS011;15138;51.012;4.692;2023-04-03T02:09:10;7.38;;;3.28;;
27746;SDS011;15138;51.012;4.692;2023-04-03T02:11:38;4.65;;;2.60;;
27746;SDS011;15138;51.012;4.692;2023-04-03T02:14:06;5.60;;;3.00;;
27746;SDS011;15138;51.012;4.692;2023-04-03T02:16:35;6.30;;;3.80;;
27746;SDS011;15138;51.012;4.692;2023-04-03T02:19:03;5.20;;;3.28;;
27746;SDS011;15138;51.012;4.692;2023-04-03T02:21:31;8.07;;;3.10;;
27746;SDS011;15138;51.012;4.692;2023-04-03T02:24:00;5.07;;;3.50;;
27746;SDS011;15138;51.012;4.692;2023-04-03T02:26:29;6.05;;;3.13;;
27746;SDS011;15138;51.012;4.692;2023-04-03T02:28:57;8.38;;;3.35;;
27746;SDS011;15138;51.012;4.692;2023-04-03T02:31:25;4.63;;;3.10;;
27746;SDS011;15138;51.012;4.692;2023-04-03T02:33:53;10.38;;;4.65;;
27746;SDS011;15138;51.012;4.692;2023-04-03T02:36:21;5.20;;;3.22;;
27746;SDS011;15138;51.012;4.692;2023-04-03T02:38:50;4.68;;;2.88;;
27746;SDS011;15138;51.012;4.692;2023-04-03T02:41:19;6.75;;;3.92;;
27746;SDS011;15138;51.012;4.692;2023-04-03T02:43:48;4.78;;;2.80;;
27746;SDS011;15138;51.012;4.692;2023-04-03T02:46:16;6.45;;;3.20;;
27746;SDS011;15138;51.012;4.692;2023-04-03T02:48:44;7.60;;;3.45;;
27746;SDS011;15138;51.012;4.692;2023-04-03T02:51:12;5.45;;;3.55;;
27746;SDS011;15138;51.012;4.692;2023-04-03T02:53:40;8.10;;;3.50;;
27746;SDS011;15138;51.012;4.692;2023-04-03T02:56:09;6.40;;;3.45;;
27746;SDS011;15138;51.012;4.692;2023-04-03T02:58:38;5.55;;;3.50;;
27746;SDS011;15138;51.012;4.692;2023-04-03T03:01:06;6.53;;;3.47;;
27746;SDS011;15138;51.012;4.692;2023-04-03T03:03:34;6.47;;;3.30;;
27746;SDS011;15138;51.012;4.692;2023-04-03T03:06:03;7.28;;;3.08;;
27746;SDS011;15138;51.012;4.692;2023-04-03T03:08:32;7.28;;;3.45;;
27746;SDS011;15138;51.012;4.692;2023-04-03T03:11:01;4.82;;;3.03;;
27746;SDS011;15138;51.012;4.692;2023-04-03T03:13:30;6.43;;;3.30;;
27746;SDS011;15138;51.012;4.692;2023-04-03T03:16:00;6.28;;;3.30;;
27746;SDS011;15138;51.012;4.692;2023-04-03T03:18:29;4.45;;;2.70;;
27746;SDS011;15138;51.012;4.692;2023-04-03T03:20:58;4.75;;;2.55;;
27746;SDS011;15138;51.012;4.692;2023-04-03T03:23:27;4.35;;;2.60;;
27746;SDS011;15138;51.012;4.692;2023-04-03T03:25:56;6.60;;;3.60;;
27746;SDS011;15138;51.012;4.692;2023-04-03T03:28:26;3.65;;;2.83;;
27746;SDS011;15138;51.012;4.692;2023-04-03T03:30:56;4.05;;;2.55;;
27746;SDS011;15138;51.012;4.692;2023-04-03T03:33:25;5.93;;;3.17;;
27746;SDS011;15138;51.012;4.692;2023-04-03T03:35:54;8.23;;;4.35;;
27746;SDS011;15138;51.012;4.692;2023-04-03T03:38:23;4.95;;;3.17;;
27746;SDS011;15138;51.012;4.692;2023-04-03T03:40:51;6.55;;;3.42;;
27746;SDS011;15138;51.012;4.692;2023-04-03T03:43:20;5.43;;;3.10;;
27746;SDS011;15138;51.012;4.692;2023-04-03T03:45:49;5.95;;;3.10;;
27746;SDS011;15138;51.012;4.692;2023-04-03T03:48:18;4.13;;;2.90;;
27746;SDS011;15138;51.012;4.692;2023-04-03T03:50:49;4.95;;;3.10;;
27746;SDS011;15138;51.012;4.692;2023-04-03T03:53:17;4.22;;;2.97;;
27746;SDS011;15138;51.012;4.692;2023-04-03T03:55:45;5.20;;;2.75;;
27746;SDS011;15138;51.012;4.692;2023-04-03T03:58:14;5.20;;;3.20;;
27746;SDS011;15138;51.012;4.692;2023-04-03T04:00:42;5.82;;;2.80;;
27746;SDS011;15138;51.012;4.692;2023-04-03T04:03:10;5.25;;;3.35;;
27746;SDS011;15138;51.012;4.692;2023-04-03T04:05:38;4.00;;;2.75;;
27746;SDS011;15138;51.012;4.692;2023-04-03T04:08:08;5.43;;;3.05;;
27746;SDS011;15138;51.012;4.692;2023-04-03T04:10:36;3.83;;;3.08;;
27746;SDS011;15138;51.012;4.692;2023-04-03T04:13:05;7.50;;;2.50;;
27746;SDS011;15138;51.012;4.692;2023-04-03T04:15:34;5.93;;;2.70;;
27746;SDS011;15138;51.012;4.692;2023-04-03T04:18:02;8.82;;;3.58;;
27746;SDS011;15138;51.012;4.692;2023-04-03T04:20:31;4.25;;;2.75;;
27746;SDS011;15138;51.012;4.692;2023-04-03T04:22:59;3.55;;;2.90;;
27746;SDS011;15138;51.012;4.692;2023-04-03T04:25:28;7.97;;;3.40;;
27746;SDS011;15138;51.012;4.692;2023-04-03T04:27:57;5.47;;;3.40;;
27746;SDS011;15138;51.012;4.692;2023-04-03T04:30:25;4.43;;;3.00;;
27746;SDS011;15138;51.012;4.692;2023-04-03T04:32:53;6.10;;;3.50;;
27746;SDS011;15138;51.012;4.692;2023-04-03T04:35:22;5.07;;;2.95;;
27746;SDS011;15138;51.012;4.692;2023-04-03T04:37:50;7.43;;;3.03;;
27746;SDS011;15138;51.012;4.692;2023-04-03T04:40:18;4.63;;;2.75;;
27746;SDS011;15138;51.012;4.692;2023-04-03T04:42:48;5.22;;;3.28;;
27746;SDS011;15138;51.012;4.692;2023-04-03T04:45:16;5.43;;;2.72;;
27746;SDS011;15138;51.012;4.692;2023-04-03T04:47:45;5.95;;;2.95;;
27746;SDS011;15138;51.012;4.692;2023-04-03T04:50:13;5.32;;;3.15;;
27746;SDS011;15138;51.012;4.692;2023-04-03T04:52:41;5.88;;;3.15;;
27746;SDS011;15138;51.012;4.692;2023-04-03T04:55:09;6.13;;;3.53;;
27746;SDS011;15138;51.012;4.692;2023-04-03T04:57:37;4.60;;;2.90;;
27746;SDS011;15138;51.012;4.692;2023-04-03T05:00:07;8.65;;;3.38;;
27746;SDS011;15138;51.012;4.692;2023-04-03T05:02:37;4.13;;;2.92;;
27746;SDS011;15138;51.012;4.692;2023-04-03T05:05:05;6.25;;;3.30;;
27746;SDS011;15138;51.012;4.692;2023-04-03T05:07:34;7.75;;;3.78;;
27746;SDS011;15138;51.012;4.692;2023-04-03T05:10:03;7.63;;;3.75;;
27746;SDS011;15138;51.012;4.692;2023-04-03T05:12:32;8.10;;;4.20;;
27746;SDS011;15138;51.012;4.692;2023-04-03T05:15:00;8.27;;;5.18;;
27746;SDS011;15138;51.012;4.692;2023-04-03T05:17:29;6.03;;;3.17;;
27746;SDS011;15138;51.012;4.692;2023-04-03T05:19:58;7.47;;;3.22;;
27746;SDS011;15138;51.012;4.692;2023-04-03T05:22:26;3.80;;;2.72;;
27746;SDS011;15138;51.012;4.692;2023-04-03T05:24:54;7.50;;;3.10;;
27746;SDS011;15138;51.012;4.692;2023-04-03T05:27:22;5.03;;;3.92;;
27746;SDS011;15138;51.012;4.692;2023-04-03T05:29:52;7.85;;;4.07;;
27746;SDS011;15138;51.012;4.692;2023-04-03T05:32:20;6.13;;;3.35;;
27746;SDS011;15138;51.012;4.692;2023-04-03T05:34:50;4.60;;;3.45;;
27746;SDS011;15138;51.012;4.692;2023-04-03T05:37:18;8.18;;;4.50;;
27746;SDS011;15138;51.012;4.692;2023-04-03T05:39:47;5.68;;;2.88;;
27746;SDS011;15138;51.012;4.692;2023-04-03T05:42:15;8.55;;;4.70;;
27746;SDS011;15138;51.012;4.692;2023-04-03T05:44:44;8.00;;;4.72;;
27746;SDS011;15138;51.012;4.692;2023-04-03T05:47:13;6.85;;;4.32;;
27746;SDS011;15138;51.012;4.692;2023-04-03T05:49:41;8.23;;;4.38;;
27746;SDS011;15138;51.012;4.692;2023-04-03T05:52:17;7.80;;;4.28;;
27746;SDS011;15138;51.012;4.692;2023-04-03T05:54:48;4.80;;;3.35;;
27746;SDS011;15138;51.012;4.692;2023-04-03T05:57:17;9.80;;;5.00;;
27746;SDS011;15138;51.012;4.692;2023-04-03T05:59:45;12.82;;;6.07;;
27746;SDS011;15138;51.012;4.692;2023-04-03T06:02:15;11.75;;;6.20;;
27746;SDS011;15138;51.012;4.692;2023-04-03T06:04:44;10.07;;;4.72;;
27746;SDS011;15138;51.012;4.692;2023-04-03T06:07:16;14.85;;;6.53;;
27746;SDS011;15138;51.012;4.692;2023-04-03T06:09:47;18.23;;;7.25;;
27746;SDS011;15138;51.012;4.692;2023-04-03T06:12:17;12.43;;;6.25;;
27746;SDS011;15138;51.012;4.692;2023-04-03T06:14:46;12.02;;;5.55;;
27746;SDS011;15138;51.012;4.692;2023-04-03T06:17:14;10.50;;;5.97;;
27746;SDS011;15138;51.012;4.692;2023-04-03T06:19:44;11.63;;;6.57;;
27746;SDS011;15138;51.012;4.692;2023-04-03T06:22:12;13.02;;;4.63;;
27746;SDS011;15138;51.012;4.692;2023-04-03T06:24:43;16.52;;;7.22;;
27746;SDS011;15138;51.012;4.692;2023-04-03T06:27:11;13.45;;;5.60;;
27746;SDS011;15138;51.012;4.692;2023-04-03T06:29:40;14.27;;;7.25;;
27746;SDS011;15138;51.012;4.692;2023-04-03T06:32:08;14.73;;;7.35;;
27746;SDS011;15138;51.012;4.692;2023-04-03T06:34:36;12.48;;;6.15;;
27746;SDS011;15138;51.012;4.692;2023-04-03T06:37:05;17.08;;;8.85;;
27746;SDS011;15138;51.012;4.692;2023-04-03T06:39:33;10.77;;;6.50;;
27746;SDS011;15138;51.012;4.692;2023-04-03T06:42:03;10.98;;;5.93;;
27746;SDS011;15138;51.012;4.692;2023-04-03T06:44:32;13.73;;;7.00;;
27746;SDS011;15138;51.012;4.692;2023-04-03T06:47:01;15.30;;;5.72;;
27746;SDS011;15138;51.012;4.692;2023-04-03T06:49:29;11.13;;;5.93;;
27746;SDS011;15138;51.012;4.692;2023-04-03T06:51:58;11.25;;;4.43;;
27746;SDS011;15138;51.012;4.692;2023-04-03T06:54:28;15.77;;;6.78;;
27746;SDS011;15138;51.012;4.692;2023-04-03T06:56:56;13.95;;;6.93;;
27746;SDS011;15138;51.012;4.692;2023-04-03T06:59:26;17.20;;;6.15;;
27746;SDS011;15138;51.012;4.692;2023-04-03T07:01:54;9.68;;;5.43;;
27746;SDS011;15138;51.012;4.692;2023-04-03T07:04:22;14.73;;;6.07;;
27746;SDS011;15138;51.012;4.692;2023-04-03T07:06:51;13.00;;;6.47;;
27746;SDS011;15138;51.012;4.692;2023-04-03T07:09:19;13.90;;;5.50;;
27746;SDS011;15138;51.012;4.692;2023-04-03T07:11:47;9.93;;;4.97;;
27746;SDS011;15138;51.012;4.692;2023-04-03T07:14:17;9.45;;;5.93;;
27746;SDS011;15138;51.012;4.692;2023-04-03T07:16:47;12.98;;;4.97;;
27746;SDS011;15138;51.012;4.692;2023-04-03T07:19:15;12.02;;;5.57;;
27746;SDS011;15138;51.012;4.692;2023-04-03T07:21:45;15.02;;;5.70;;
27746;SDS011;15138;51.012;4.692;2023-04-03T07:24:13;10.77;;;5.95;;
27746;SDS011;15138;51.012;4.692;2023-04-03T07:26:42;12.35;;;5.85;;
27746;SDS011;15138;51.012;4.692;2023-04-03T07:29:11;11.77;;;5.13;;
27746;SDS011;15138;51.012;4.692;2023-04-03T07:31:40;8.77;;;4.53;;
27746;SDS011;15138;51.012;4.692;2023-04-03T07:34:10;12.60;;;5.18;;
27746;SDS011;15138;51.012;4.692;2023-04-03T07:36:38;12.35;;;5.35;;
27746;SDS011;15138;51.012;4.692;2023-04-03T07:39:07;11.85;;;5.40;;
27746;SDS011;15138;51.012;4.692;2023-04-03T07:41:35;8.77;;;4.60;;
27746;SDS011;15138;51.012;4.692;2023-04-03T07:44:03;9.75;;;4.80;;
27746;SDS011;15138;51.012;4.692;2023-04-03T07:46:32;11.75;;;4.15;;
27746;SDS011;15138;51.012;4.692;2023-04-03T07:49:00;12.18;;;4.45;;
27746;SDS011;15138;51.012;4.692;2023-04-03T07:51:29;16.88;;;4.97;;
27746;SDS011;15138;51.012;4.692;2023-04-03T07:53:58;11.25;;;4.47;;
27746;SDS011;15138;51.012;4.692;2023-04-03T07:56:26;7.97;;;3.85;;
27746;SDS011;15138;51.012;4.692;2023-04-03T07:58:54;11.23;;;4.70;;
27746;SDS011;15138;51.012;4.692;2023-04-03T08:01:23;11.38;;;3.90;;
27746;SDS011;15138;51.012;4.692;2023-04-03T08:03:51;9.07;;;3.85;;
27746;SDS011;15138;51.012;4.692;2023-04-03T08:06:19;12.55;;;4.50;;
27746;SDS011;15138;51.012;4.692;2023-04-03T08:09:09;9.93;;;3.92;;
27746;SDS011;15138;51.012;4.692;2023-04-03T08:11:40;7.30;;;3.50;;
27746;SDS011;15138;51.012;4.692;2023-04-03T08:14:09;9.90;;;4.00;;
27746;SDS011;15138;51.012;4.692;2023-04-03T08:16:42;9.88;;;3.88;;
27746;SDS011;15138;51.012;4.692;2023-04-03T08:19:12;9.10;;;2.97;;
27746;SDS011;15138;51.012;4.692;2023-04-03T08:21:52;9.25;;;3.83;;
27746;SDS011;15138;51.012;4.692;2023-04-03T08:24:21;7.50;;;3.28;;
27746;SDS011;15138;51.012;4.692;2023-04-03T08:26:50;9.65;;;3.63;;
27746;SDS011;15138;51.012;4.692;2023-04-03T08:29:18;9.02;;;3.55;;
27746;SDS011;15138;51.012;4.692;2023-04-03T08:31:49;8.95;;;2.63;;
27746;SDS011;15138;51.012;4.692;2023-04-03T08:34:17;8.90;;;3.38;;
27746;SDS011;15138;51.012;4.692;2023-04-03T08:36:46;7.43;;;3.50;;
27746;SDS011;15138;51.012;4.692;2023-04-03T08:39:16;11.85;;;3.50;;
27746;SDS011;15138;51.012;4.692;2023-04-03T08:41:46;8.90;;;3.10;;
27746;SDS011;15138;51.012;4.692;2023-04-03T08:44:15;7.88;;;2.97;;
27746;SDS011;15138;51.012;4.692;2023-04-03T08:46:52;9.25;;;3.38;;
27746;SDS011;15138;51.012;4.692;2023-04-03T08:49:31;6.53;;;3.00;;
27746;SDS011;15138;51.012;4.692;2023-04-03T08:52:02;6.50;;;3.55;;
27746;SDS011;15138;51.012;4.692;2023-04-03T08:54:39;7.15;;;3.10;;
27746;SDS011;15138;51.012;4.692;2023-04-03T08:57:10;10.05;;;3.60;;
27746;SDS011;15138;51.012;4.692;2023-04-03T08:59:40;9.90;;;3.00;;
27746;SDS011;15138;51.012;4.692;2023-04-03T09:02:21;7.80;;;2.33;;
27746;SDS011;15138;51.012;4.692;2023-04-03T09:04:53;5.63;;;2.30;;
27746;SDS011;15138;51.012;4.692;2023-04-03T09:07:25;14.77;;;2.85;;
27746;SDS011;15138;51.012;4.692;2023-04-03T09:10:02;8.57;;;2.15;;
27746;SDS011;15138;51.012;4.692;2023-04-03T09:12:34;7.05;;;2.40;;
27746;SDS011;15138;51.012;4.692;2023-04-03T09:15:09;5.00;;;2.13;;
27746;SDS011;15138;51.012;4.692;2023-04-03T09:18:03;9.98;;;2.63;;
27746;SDS011;15138;51.012;4.692;2023-04-03T09:20:39;6.47;;;2.40;;
27746;SDS011;15138;51.012;4.692;2023-04-03T09:23:15;4.47;;;1.83;;
27746;SDS011;15138;51.012;4.692;2023-04-03T09:25:48;3.75;;;2.10;;
27746;SDS011;15138;51.012;4.692;2023-04-03T09:28:21;5.60;;;2.53;;
27746;SDS011;15138;51.012;4.692;2023-04-03T09:30:49;9.85;;;2.78;;
27746;SDS011;15138;51.012;4.692;2023-04-03T09:33:17;7.28;;;2.28;;
27746;SDS011;15138;51.012;4.692;2023-04-03T09:35:47;3.10;;;1.80;;
27746;SDS011;15138;51.012;4.692;2023-04-03T09:38:18;9.60;;;2.80;;
27746;SDS011;15138;51.012;4.692;2023-04-03T09:40:48;5.90;;;2.30;;
27746;SDS011;15138;51.012;4.692;2023-04-03T09:43:22;9.68;;;2.50;;
27746;SDS011;15138;51.012;4.692;2023-04-03T09:45:55;6.68;;;1.92;;
27746;SDS011;15138;51.012;4.692;2023-04-03T09:48:52;6.22;;;2.20;;
27746;SDS011;15138;51.012;4.692;2023-04-03T09:51:34;6.28;;;2.00;;
27746;SDS011;15138;51.012;4.692;2023-04-03T09:54:24;4.90;;;2.13;;
27746;SDS011;15138;51.012;4.692;2023-04-03T09:57:06;3.20;;;1.75;;
27746;SDS011;15138;51.012;4.692;2023-04-03T09:59:38;5.50;;;2.03;;
27746;SDS011;15138;51.012;4.692;2023-04-03T10:02:32;8.20;;;2.60;;
27746;SDS011;15138;51.012;4.692;2023-04-03T10:05:02;6.10;;;2.60;;
27746;SDS011;15138;51.012;4.692;2023-04-03T10:07:36;7.32;;;2.15;;
27746;SDS011;15138;51.012;4.692;2023-04-03T10:10:18;3.33;;;1.50;;
27746;SDS011;15138;51.012;4.692;2023-04-03T10:12:58;5.45;;;2.08;;
27746;SDS011;15138;51.012;4.692;2023-04-03T10:15:35;7.65;;;2.10;;
27746;SDS011;15138;51.012;4.692;2023-04-03T10:18:10;6.75;;;1.98;;
27746;SDS011;15138;51.012;4.692;2023-04-03T10:20:54;6.05;;;2.20;;
27746;SDS011;15138;51.012;4.692;2023-04-03T10:23:38;3.53;;;1.73;;
27746;SDS011;15138;51.012;4.692;2023-04-03T10:26:13;5.18;;;1.77;;
27746;SDS011;15138;51.012;4.692;2023-04-03T10:28:51;4.22;;;1.23;;
27746;SDS011;15138;51.012;4.692;2023-04-03T10:31:28;4.30;;;1.67;;
27746;SDS011;15138;51.012;4.692;2023-04-03T10:34:05;4.30;;;1.70;;
27746;SDS011;15138;51.012;4.692;2023-04-03T10:36:36;5.10;;;1.70;;
27746;SDS011;15138;51.012;4.692;2023-04-03T10:39:14;4.43;;;1.60;;
27746;SDS011;15138;51.012;4.692;2023-04-03T10:41:56;6.45;;;1.83;;
27746;SDS011;15138;51.012;4.692;2023-04-03T10:44:48;4.85;;;1.60;;
27746;SDS011;15138;51.012;4.692;2023-04-03T10:50:07;3.60;;;1.45;;
27746;SDS011;15138;51.012;4.692;2023-04-03T10:53:00;3.38;;;1.50;;
27746;SDS011;15138;51.012;4.692;2023-04-03T10:55:34;3.30;;;1.50;;
27746;SDS011;15138;51.012;4.692;2023-04-03T10:58:05;6.13;;;2.22;;
27746;SDS011;15138;51.012;4.692;2023-04-03T11:00:36;7.45;;;1.73;;
27746;SDS011;15138;51.012;4.692;2023-04-03T11:03:10;4.78;;;1.67;;
27746;SDS011;15138;51.012;4.692;2023-04-03T11:05:41;4.93;;;1.90;;
27746;SDS011;15138;51.012;4.692;2023-04-03T11:08:13;5.60;;;1.13;;
27746;SDS011;15138;51.012;4.692;2023-04-03T11:10:49;4.20;;;1.20;;
27746;SDS011;15138;51.012;4.692;2023-04-03T11:13:20;3.00;;;1.33;;
27746;SDS011;15138;51.012;4.692;2023-04-03T11:15:52;2.30;;;1.10;;
27746;SDS011;15138;51.012;4.692;2023-04-03T11:18:24;2.45;;;1.30;;
27746;SDS011;15138;51.012;4.692;2023-04-03T11:20:57;4.55;;;1.65;;
27746;SDS011;15138;51.012;4.692;2023-04-03T11:26:14;5.38;;;1.55;;
27746;SDS011;15138;51.012;4.692;2023-04-03T11:28:44;3.00;;;1.17;;
27746;SDS011;15138;51.012;4.692;2023-04-03T11:31:16;3.53;;;1.33;;
27746;SDS011;15138;51.012;4.692;2023-04-03T11:33:58;4.50;;;1.77;;
27746;SDS011;15138;51.012;4.692;2023-04-03T11:36:39;3.60;;;1.85;;
27746;SDS011;15138;51.012;4.692;2023-04-03T11:39:16;6.00;;;1.60;;
27746;SDS011;15138;51.012;4.692;2023-04-03T11:41:46;5.85;;;1.23;;
27746;SDS011;15138;51.012;4.692;2023-04-03T11:44:27;4.50;;;1.73;;
27746;SDS011;15138;51.012;4.692;2023-04-03T11:46:59;6.68;;;1.73;;
27746;SDS011;15138;51.012;4.692;2023-04-03T11:55:43;2.60;;;1.23;;
27746;SDS011;15138;51.012;4.692;2023-04-03T11:58:14;3.50;;;1.27;;
27746;SDS011;15138;51.012;4.692;2023-04-03T12:09:33;3.03;;;1.50;;
27746;SDS011;15138;51.012;4.692;2023-04-03T12:12:24;5.10;;;1.55;;
27746;SDS011;15138;51.012;4.692;2023-04-03T12:14:56;4.15;;;0.82;;
27746;SDS011;15138;51.012;4.692;2023-04-03T12:17:54;4.47;;;1.52;;
27746;SDS011;15138;51.012;4.692;2023-04-03T12:23:24;2.72;;;1.50;;
27746;SDS011;15138;51.012;4.692;2023-04-03T12:25:59;7.32;;;1.75;;
27746;SDS011;15138;51.012;4.692;2023-04-03T12:28:35;3.63;;;1.80;;
27746;SDS011;15138;51.012;4.692;2023-04-03T12:31:06;4.85;;;1.30;;
27746;SDS011;15138;51.012;4.692;2023-04-03T12:33:51;4.60;;;1.60;;
27746;SDS011;15138;51.012;4.692;2023-04-03T12:36:39;4.30;;;1.45;;
27746;SDS011;15138;51.012;4.692;2023-04-03T12:39:18;2.90;;;1.42;;
27746;SDS011;15138;51.012;4.692;2023-04-03T12:42:15;5.47;;;1.50;;
27746;SDS011;15138;51.012;4.692;2023-04-03T12:44:46;5.00;;;1.65;;
27746;SDS011;15138;51.012;4.692;2023-04-03T12:47:23;4.05;;;1.27;;
27746;SDS011;15138;51.012;4.692;2023-04-03T12:49:55;5.13;;;1.30;;
27746;SDS011;15138;51.012;4.692;2023-04-03T12:52:30;7.18;;;1.63;;
27746;SDS011;15138;51.012;4.692;2023-04-03T12:55:04;5.75;;;1.70;;
27746;SDS011;15138;51.012;4.692;2023-04-03T12:57:41;3.92;;;1.40;;
27746;SDS011;15138;51.012;4.692;2023-04-03T13:00:19;6.13;;;1.80;;
27746;SDS011;15138;51.012;4.692;2023-04-03T13:02:53;2.13;;;1.10;;
27746;SDS011;15138;51.012;4.692;2023-04-03T13:05:22;6.35;;;1.50;;
27746;SDS011;15138;51.012;4.692;2023-04-03T13:07:52;0.38;;;0.25;;
27746;SDS011;15138;51.012;4.692;2023-04-03T13:10:26;9.43;;;2.13;;
27746;SDS011;15138;51.012;4.692;2023-04-03T13:12:55;7.07;;;1.70;;
27746;SDS011;15138;51.012;4.692;2023-04-03T13:15:25;4.03;;;1.35;;
27746;SDS011;15138;51.012;4.692;2023-04-03T13:17:54;7.47;;;1.35;;
27746;SDS011;15138;51.012;4.692;2023-04-03T13:20:24;5.57;;;1.70;;
27746;SDS011;15138;51.012;4.692;2023-04-03T13:22:56;5.32;;;1.45;;
27746;SDS011;15138;51.012;4.692;2023-04-03T13:25:30;4.40;;;1.35;;
27746;SDS011;15138;51.012;4.692;2023-04-03T13:28:00;4.07;;;1.40;;
27746;SDS011;15138;51.012;4.692;2023-04-03T13:30:40;2.58;;;1.48;;
27746;SDS011;15138;51.012;4.692;2023-04-03T13:33:22;3.63;;;1.30;;
27746;SDS011;15138;51.012;4.692;2023-04-03T13:35:56;7.85;;;1.63;;
27746;SDS011;15138;51.012;4.692;2023-04-03T13:38:28;3.47;;;1.60;;
27746;SDS011;15138;51.012;4.692;2023-04-03T13:41:01;5.68;;;1.60;;
27746;SDS011;15138;51.012;4.692;2023-04-03T13:43:32;3.03;;;0.82;;
27746;SDS011;15138;51.012;4.692;2023-04-03T13:46:04;7.40;;;1.27;;
27746;SDS011;15138;51.012;4.692;2023-04-03T13:48:50;6.00;;;1.42;;
27746;SDS011;15138;51.012;4.692;2023-04-03T13:51:20;2.65;;;1.02;;
27746;SDS011;15138;51.012;4.692;2023-04-03T13:53:51;3.15;;;1.35;;
27746;SDS011;15138;51.012;4.692;2023-04-03T13:56:27;3.53;;;1.50;;
27746;SDS011;15138;51.012;4.692;2023-04-03T13:59:04;3.90;;;1.50;;
27746;SDS011;15138;51.012;4.692;2023-04-03T14:01:48;4.57;;;1.45;;
27746;SDS011;15138;51.012;4.692;2023-04-03T14:04:19;6.82;;;1.35;;
27746;SDS011;15138;51.012;4.692;2023-04-03T14:06:49;5.38;;;1.40;;
27746;SDS011;15138;51.012;4.692;2023-04-03T14:09:18;4.22;;;1.67;;
27746;SDS011;15138;51.012;4.692;2023-04-03T14:11:50;3.92;;;1.50;;
27746;SDS011;15138;51.012;4.692;2023-04-03T14:14:31;5.10;;;1.48;;
27746;SDS011;15138;51.012;4.692;2023-04-03T14:17:02;3.40;;;1.40;;
27746;SDS011;15138;51.012;4.692;2023-04-03T14:19:51;4.45;;;1.35;;
27746;SDS011;15138;51.012;4.692;2023-04-03T14:22:22;4.43;;;1.30;;
27746;SDS011;15138;51.012;4.692;2023-04-03T14:24:52;2.08;;;1.10;;
27746;SDS011;15138;51.012;4.692;2023-04-03T14:27:22;4.63;;;1.20;;
27746;SDS011;15138;51.012;4.692;2023-04-03T14:29:52;3.78;;;1.60;;
27746;SDS011;15138;51.012;4.692;2023-04-03T14:32:23;4.47;;;1.20;;
27746;SDS011;15138;51.012;4.692;2023-04-03T14:34:52;3.03;;;1.35;;
27746;SDS011;15138;51.012;4.692;2023-04-03T14:37:22;3.33;;;1.58;;
27746;SDS011;15138;51.012;4.692;2023-04-03T14:39:53;1.80;;;1.10;;
27746;SDS011;15138;51.012;4.692;2023-04-03T14:42:23;3.03;;;1.23;;
27746;SDS011;15138;51.012;4.692;2023-04-03T14:44:53;4.18;;;1.42;;
27746;SDS011;15138;51.012;4.692;2023-04-03T14:47:22;3.05;;;1.40;;
27746;SDS011;15138;51.012;4.692;2023-04-03T14:49:57;3.17;;;1.25;;
27746;SDS011;15138;51.012;4.692;2023-04-03T14:52:27;5.43;;;1.45;;
27746;SDS011;15138;51.012;4.692;2023-04-03T14:54:57;3.15;;;1.20;;
27746;SDS011;15138;51.012;4.692;2023-04-03T14:57:28;4.35;;;1.48;;
27746;SDS011;15138;51.012;4.692;2023-04-03T14:59:57;1.83;;;0.98;;
27746;SDS011;15138;51.012;4.692;2023-04-03T15:02:28;5.90;;;1.17;;
27746;SDS011;15138;51.012;4.692;2023-04-03T15:04:59;6.18;;;1.40;;
27746;SDS011;15138;51.012;4.692;2023-04-03T15:07:31;2.50;;;0.80;;
27746;SDS011;15138;51.012;4.692;2023-04-03T15:10:02;4.82;;;1.30;;
27746;SDS011;15138;51.012;4.692;2023-04-03T15:12:42;5.13;;;1.17;;
27746;SDS011;15138;51.012;4.692;2023-04-03T15:15:11;2.60;;;1.38;;
27746;SDS011;15138;51.012;4.692;2023-04-03T15:17:41;4.78;;;1.55;;
27746;SDS011;15138;51.012;4.692;2023-04-03T15:20:11;6.15;;;1.55;;
27746;SDS011;15138;51.012;4.692;2023-04-03T15:22:41;5.00;;;1.40;;
27746;SDS011;15138;51.012;4.692;2023-04-03T15:25:09;3.83;;;1.50;;
27746;SDS011;15138;51.012;4.692;2023-04-03T15:27:38;3.55;;;1.48;;
27746;SDS011;15138;51.012;4.692;2023-04-03T15:30:11;3.13;;;1.25;;
27746;SDS011;15138;51.012;4.692;2023-04-03T15:32:43;3.58;;;1.60;;
27746;SDS011;15138;51.012;4.692;2023-04-03T15:35:11;4.80;;;1.60;;